createdAt,value
2022-12-20T00:00:55.998Z,20.27
2022-12-20T00:03:57.679Z,19.90
2022-12-20T00:06:27.574Z,19.30
2022-12-20T00:09:06.096Z,20.05
2022-12-20T00:11:40.851Z,18.67
2022-12-20T00:14:10.208Z,19.38
2022-12-20T00:19:30.105Z,19.83
2022-12-20T00:22:00.865Z,18.38
2022-12-20T00:24:31.022Z,17.98
2022-12-20T00:27:10.992Z,17.85
2022-12-20T00:29:42.654Z,17.30
2022-12-20T00:32:32.191Z,18.75
2022-12-20T00:35:07.755Z,19.30
2022-12-20T00:37:49.157Z,16.73
2022-12-20T00:40:19.509Z,16.57
2022-12-20T00:43:00.922Z,16.40
2022-12-20T00:45:36.140Z,17.13
2022-12-20T00:48:09.440Z,17.23
2022-12-20T00:50:42.721Z,17.92
2022-12-20T00:53:26.711Z,15.52
2022-12-20T00:55:55.611Z,16.35
2022-12-20T00:58:24.814Z,16.77
2022-12-20T01:00:57.959Z,17.83
2022-12-20T01:03:36.432Z,18.38
2022-12-20T01:06:18.978Z,19.92
2022-12-20T01:08:49.666Z,19.15
2022-12-20T01:11:52.014Z,17.75
2022-12-20T01:14:45.232Z,16.30
2022-12-20T01:17:13.705Z,17.90
2022-12-20T01:19:42.371Z,17.83
2022-12-20T01:22:10.814Z,17.92
2022-12-20T01:24:39.875Z,19.73
2022-12-20T01:27:09.030Z,17.75
2022-12-20T01:29:38.409Z,17.95
2022-12-20T01:32:06.888Z,17.02
2022-12-20T01:34:35.952Z,17.65
2022-12-20T01:37:05.331Z,16.60
2022-12-20T01:39:36.071Z,18.10
2022-12-20T01:42:17.151Z,17.73
2022-12-20T01:44:45.999Z,16.23
2022-12-20T01:47:16.308Z,17.48
2022-12-20T01:49:49.067Z,17.17
2022-12-20T01:52:24.898Z,18.60
2022-12-20T01:55:08.129Z,16.42
2022-12-20T01:57:51.909Z,15.95
2022-12-20T02:00:22.090Z,17.00
2022-12-20T02:02:51.680Z,17.27
2022-12-20T02:05:23.788Z,15.85
2022-12-20T02:07:56.121Z,16.38
2022-12-20T02:10:28.438Z,16.73
2022-12-20T02:13:02.733Z,17.02
2022-12-20T02:15:47.797Z,17.08
2022-12-20T02:18:28.237Z,16.48
2022-12-20T02:21:15.454Z,16.45
2022-12-20T02:23:58.908Z,17.63
2022-12-20T02:26:42.838Z,16.98
2022-12-20T02:29:32.471Z,17.25
2022-12-20T02:32:17.537Z,17.98
2022-12-20T02:34:46.984Z,17.70
2022-12-20T02:37:16.739Z,19.63
2022-12-20T02:39:47.333Z,17.98
2022-12-20T02:42:25.878Z,18.20
2022-12-20T02:45:31.356Z,18.38
2022-12-20T02:48:02.481Z,20.10
2022-12-20T02:51:02.479Z,19.60
2022-12-20T02:53:32.499Z,19.00
2022-12-20T02:56:10.060Z,20.50
2022-12-20T02:58:55.343Z,18.90
2022-12-20T03:01:47.050Z,20.83
2022-12-20T03:04:19.631Z,20.40
2022-12-20T03:07:02.508Z,21.13
2022-12-20T03:09:37.933Z,21.25
2022-12-20T03:12:08.673Z,21.55
2022-12-20T03:14:40.458Z,21.05
2022-12-20T03:17:12.524Z,22.40
2022-12-20T03:19:44.059Z,24.27
2022-12-20T03:22:13.338Z,26.73
2022-12-20T03:24:44.150Z,25.67
2022-12-20T03:27:15.446Z,24.10
2022-12-20T03:29:46.030Z,21.92
2022-12-20T03:32:15.419Z,24.25
2022-12-20T03:34:46.006Z,22.25
2022-12-20T03:37:15.183Z,23.90
2022-12-20T03:39:43.533Z,24.35
2022-12-20T03:42:21.803Z,23.25
2022-12-20T03:44:50.560Z,23.88
2022-12-20T03:47:18.898Z,23.35
2022-12-20T03:49:48.733Z,24.33
2022-12-20T03:52:17.463Z,25.30
2022-12-20T03:54:46.066Z,24.20
2022-12-20T03:57:17.926Z,21.77
2022-12-20T03:59:54.577Z,22.70
2022-12-20T04:02:23.187Z,23.60
2022-12-20T04:04:53.288Z,25.13
2022-12-20T04:07:23.741Z,54.05
2022-12-20T04:09:52.950Z,28.90
2022-12-20T04:12:23.431Z,32.83
2022-12-20T04:14:52.614Z,29.55
2022-12-20T04:17:21.083Z,29.77
2022-12-20T04:19:50.069Z,28.08
2022-12-20T04:22:19.587Z,22.83
2022-12-20T04:24:55.703Z,24.10
2022-12-20T04:27:27.021Z,23.77
2022-12-20T04:29:59.982Z,23.17
2022-12-20T04:32:28.046Z,23.33
2022-12-20T04:34:57.544Z,22.75
2022-12-20T04:37:25.542Z,22.83
2022-12-20T04:39:56.885Z,22.90
2022-12-20T04:42:32.844Z,24.60
2022-12-20T04:45:04.796Z,22.80
2022-12-20T04:47:35.913Z,23.48
2022-12-20T04:50:07.498Z,24.30
2022-12-20T04:52:58.018Z,25.48
2022-12-20T04:55:31.075Z,25.90
2022-12-20T04:58:07.668Z,24.30
2022-12-20T05:00:40.747Z,24.17
2022-12-20T05:03:25.684Z,23.92
2022-12-20T05:05:56.636Z,23.95
2022-12-20T05:08:27.624Z,23.05
2022-12-20T05:10:58.513Z,25.25
2022-12-20T05:13:28.529Z,29.67
2022-12-20T05:15:58.166Z,25.73
2022-12-20T05:18:32.600Z,30.83
2022-12-20T05:21:25.692Z,23.63
2022-12-20T05:24:19.815Z,24.08
2022-12-20T05:27:14.758Z,23.23
2022-12-20T05:29:43.615Z,23.55
2022-12-20T05:32:19.946Z,21.92
2022-12-20T05:34:49.693Z,23.42
2022-12-20T05:37:28.528Z,20.58
2022-12-20T05:40:05.393Z,21.40
2022-12-20T05:42:35.190Z,22.48
2022-12-20T05:45:04.358Z,23.05
2022-12-20T05:47:39.110Z,20.48
2022-12-20T05:50:18.216Z,29.42
2022-12-20T05:53:11.700Z,22.27
2022-12-20T05:55:52.233Z,22.70
2022-12-20T05:58:26.690Z,25.23
2022-12-20T06:01:05.240Z,30.23
2022-12-20T06:03:40.742Z,30.35
2022-12-20T06:06:15.484Z,25.90
2022-12-20T06:08:49.164Z,28.60
2022-12-20T06:11:29.355Z,24.87
2022-12-20T06:14:05.142Z,29.20
2022-12-20T06:16:55.459Z,31.85
2022-12-20T06:19:32.762Z,32.92
2022-12-20T06:22:01.965Z,32.63
2022-12-20T06:24:48.195Z,27.75
2022-12-20T06:27:22.292Z,34.72
2022-12-20T06:29:59.333Z,40.15
2022-12-20T06:32:35.626Z,35.50
2022-12-20T06:35:05.668Z,29.30
2022-12-20T06:37:35.267Z,34.70
2022-12-20T06:40:06.050Z,33.67
2022-12-20T06:42:37.044Z,41.88
2022-12-20T06:45:06.289Z,35.38
2022-12-20T06:47:35.999Z,32.30
2022-12-20T06:50:07.858Z,33.08
2022-12-20T06:52:36.378Z,30.52
2022-12-20T06:55:05.901Z,32.88
2022-12-20T06:57:37.463Z,40.60
2022-12-20T07:00:10.878Z,33.08
2022-12-20T07:02:39.721Z,27.58
2022-12-20T07:05:09.087Z,27.15
2022-12-20T07:07:44.541Z,30.02
2022-12-20T07:10:16.402Z,31.55
2022-12-20T07:12:48.106Z,36.65
2022-12-20T07:15:18.785Z,50.20
2022-12-20T07:17:46.845Z,45.38
2022-12-20T07:20:16.832Z,31.50
2022-12-20T07:22:47.185Z,32.22
2022-12-20T07:25:17.319Z,25.10
2022-12-20T07:27:49.947Z,27.80
2022-12-20T07:30:19.496Z,33.88
2022-12-20T07:32:47.924Z,31.65
2022-12-20T07:35:17.070Z,24.60
2022-12-20T07:37:45.851Z,25.88
2022-12-20T07:40:16.645Z,25.80
2022-12-20T07:42:56.688Z,25.60
2022-12-20T07:45:26.389Z,24.98
2022-12-20T07:47:55.156Z,34.80
2022-12-20T07:50:24.062Z,48.63
2022-12-20T07:52:53.147Z,48.17
2022-12-20T07:55:23.550Z,54.15
2022-12-20T07:58:01.787Z,45.70
2022-12-20T08:00:31.834Z,30.98
2022-12-20T08:03:25.838Z,27.52
2022-12-20T08:05:58.292Z,25.30
2022-12-20T08:08:30.532Z,23.15
2022-12-20T08:10:59.617Z,24.23
2022-12-20T08:13:29.787Z,24.63
2022-12-20T08:15:58.684Z,22.83
2022-12-20T08:18:27.386Z,23.58
2022-12-20T08:20:55.656Z,24.83
2022-12-20T08:23:23.653Z,29.27
2022-12-20T08:25:55.124Z,26.48
2022-12-20T08:28:33.383Z,34.72
2022-12-20T08:31:04.818Z,31.85
2022-12-20T08:33:35.231Z,26.05
2022-12-20T08:36:09.911Z,25.08
2022-12-20T08:38:39.415Z,24.73
2022-12-20T08:41:15.313Z,23.23
2022-12-20T08:43:43.908Z,24.15
2022-12-20T08:46:22.125Z,24.42
2022-12-20T08:48:50.175Z,25.13
2022-12-20T08:51:19.388Z,23.90
2022-12-20T08:53:48.593Z,23.33
2022-12-20T08:56:20.491Z,22.83
2022-12-20T08:58:50.859Z,26.73
2022-12-20T09:01:20.936Z,25.00
2022-12-20T09:03:49.297Z,24.45
2022-12-20T09:06:21.084Z,38.50
2022-12-20T09:08:49.809Z,32.53
2022-12-20T09:11:22.607Z,39.10
2022-12-20T09:13:53.533Z,71.00
2022-12-20T09:16:26.143Z,36.28
2022-12-20T09:19:04.353Z,27.08
2022-12-20T09:21:35.770Z,35.92
2022-12-20T09:24:06.317Z,22.00
2022-12-20T09:26:35.478Z,24.25
2022-12-20T09:29:05.962Z,28.20
2022-12-20T09:31:43.060Z,27.98
2022-12-20T09:34:12.167Z,22.67
2022-12-20T09:36:41.978Z,24.77
2022-12-20T09:39:15.533Z,24.25
2022-12-20T09:41:48.832Z,26.20
2022-12-20T09:44:28.376Z,42.28
2022-12-20T09:47:10.587Z,33.28
2022-12-20T09:49:42.388Z,32.08
2022-12-20T09:52:35.909Z,35.15
2022-12-20T09:55:30.642Z,30.25
2022-12-20T09:58:30.435Z,24.83
2022-12-20T10:00:59.500Z,28.52
2022-12-20T10:03:34.236Z,37.03
2022-12-20T10:06:16.422Z,32.33
2022-12-20T10:09:00.830Z,36.00
2022-12-20T10:11:51.278Z,46.33
2022-12-20T10:14:39.373Z,52.03
2022-12-20T10:17:32.359Z,66.22
2022-12-20T10:20:12.247Z,56.67
2022-12-20T10:23:05.182Z,70.30
2022-12-20T10:25:35.169Z,50.28
2022-12-20T10:28:14.288Z,37.67
2022-12-20T10:30:43.946Z,36.17
2022-12-20T10:33:22.284Z,32.40
2022-12-20T10:35:52.392Z,28.02
2022-12-20T10:38:46.320Z,23.60
2022-12-20T10:41:24.616Z,25.10
2022-12-20T10:44:03.285Z,27.73
2022-12-20T10:46:46.668Z,31.73
2022-12-20T10:49:23.406Z,31.90
2022-12-20T10:51:55.876Z,45.50
2022-12-20T10:54:37.681Z,33.45
2022-12-20T10:57:18.684Z,33.75
2022-12-20T10:59:56.942Z,28.50
2022-12-20T11:02:41.939Z,28.50
2022-12-20T11:05:30.583Z,25.15
2022-12-20T11:08:34.653Z,23.88
2022-12-20T11:11:24.322Z,34.70
2022-12-20T11:14:01.225Z,23.95
2022-12-20T11:16:40.372Z,26.45
2022-12-20T11:19:34.311Z,22.50
2022-12-20T11:22:24.841Z,23.02
2022-12-20T11:25:07.422Z,25.90
2022-12-20T11:27:35.931Z,25.25
2022-12-20T11:30:15.587Z,24.10
2022-12-20T11:32:56.019Z,23.67
2022-12-20T11:36:08.883Z,25.15
2022-12-20T11:38:46.369Z,24.83
2022-12-20T11:41:18.363Z,28.15
2022-12-20T11:44:27.226Z,24.45
2022-12-20T11:47:05.595Z,22.27
2022-12-20T11:49:56.257Z,23.25
2022-12-20T11:52:48.663Z,21.38
2022-12-20T11:55:31.180Z,26.63
2022-12-20T11:58:19.073Z,35.78
2022-12-20T12:01:07.357Z,25.25
2022-12-20T12:03:46.676Z,27.70
2022-12-20T12:06:30.613Z,32.97
2022-12-20T12:09:13.787Z,33.08
2022-12-20T12:12:07.192Z,30.05
2022-12-20T12:15:12.704Z,25.15
2022-12-20T12:18:05.406Z,27.45
2022-12-20T12:20:46.646Z,27.25
2022-12-20T12:23:26.007Z,24.40
2022-12-20T12:25:59.327Z,25.52
2022-12-20T12:28:31.696Z,27.38
2022-12-20T12:31:05.737Z,27.83
2022-12-20T12:33:44.694Z,26.52
2022-12-20T12:36:37.482Z,27.80
2022-12-20T12:39:12.462Z,27.30
2022-12-20T12:41:59.072Z,27.45
2022-12-20T12:44:43.763Z,26.08
2022-12-20T12:47:17.140Z,29.17
2022-12-20T12:49:49.333Z,27.67
2022-12-20T12:52:44.147Z,27.65
2022-12-20T12:55:33.792Z,28.48
2022-12-20T12:58:14.321Z,28.63
2022-12-20T13:00:56.183Z,31.30
2022-12-20T13:03:47.147Z,27.65
2022-12-20T13:06:39.928Z,26.02
2022-12-20T13:09:09.116Z,34.13
2022-12-20T13:11:47.843Z,29.45
2022-12-20T13:14:27.730Z,27.17
2022-12-20T13:17:13.448Z,28.48
2022-12-20T13:19:52.828Z,30.00
2022-12-20T13:22:23.870Z,30.88
2022-12-20T13:25:00.272Z,29.17
2022-12-20T13:27:32.057Z,25.23
2022-12-20T13:30:10.467Z,29.55
2022-12-20T13:32:51.905Z,32.75
2022-12-20T13:35:26.137Z,29.42
2022-12-20T13:37:56.689Z,29.45
2022-12-20T13:40:48.983Z,31.63
2022-12-20T13:43:20.449Z,27.75
2022-12-20T13:46:10.162Z,28.08
2022-12-20T13:48:38.781Z,34.33
2022-12-20T13:51:12.801Z,29.80
2022-12-20T13:54:23.382Z,32.92
2022-12-20T13:56:59.540Z,32.35
2022-12-20T13:59:30.601Z,45.08
2022-12-20T14:02:11.770Z,48.38
2022-12-20T14:04:43.995Z,67.72
2022-12-20T14:07:18.456Z,80.50
2022-12-20T14:09:55.392Z,70.50
2022-12-20T14:12:29.917Z,37.55
2022-12-20T14:15:01.871Z,62.75
2022-12-20T14:17:32.538Z,51.72
2022-12-20T14:20:16.074Z,91.47
2022-12-20T14:23:06.738Z,59.88
2022-12-20T14:25:42.712Z,85.75
2022-12-20T14:28:26.473Z,74.10
2022-12-20T14:30:58.869Z,47.47
2022-12-20T14:33:28.180Z,41.30
2022-12-20T14:35:57.383Z,37.47
2022-12-20T14:38:30.711Z,39.42
2022-12-20T14:40:59.384Z,39.28
2022-12-20T14:43:35.125Z,43.42
2022-12-20T14:46:17.011Z,48.08
2022-12-20T14:48:45.829Z,50.03
2022-12-20T14:51:22.544Z,45.45
2022-12-20T14:53:51.821Z,107.97
2022-12-20T14:56:29.715Z,67.88
2022-12-20T14:59:17.325Z,56.58
2022-12-20T15:01:56.030Z,46.80
2022-12-20T15:04:37.300Z,43.15
2022-12-20T15:07:27.423Z,98.07
2022-12-20T15:09:56.670Z,53.60
2022-12-20T15:12:27.255Z,49.97
2022-12-20T15:15:11.939Z,45.58
2022-12-20T15:17:47.610Z,45.35
2022-12-20T15:20:18.944Z,64.38
2022-12-20T15:22:49.187Z,44.70
2022-12-20T15:25:18.499Z,48.67
2022-12-20T15:27:50.251Z,46.85
2022-12-20T15:30:21.839Z,47.22
2022-12-20T15:32:55.720Z,46.17
2022-12-20T15:35:27.709Z,46.53
2022-12-20T15:37:56.996Z,48.20
2022-12-20T15:40:26.617Z,46.75
2022-12-20T15:42:55.919Z,38.03
2022-12-20T15:45:32.218Z,99.07
2022-12-20T15:48:02.726Z,57.10
2022-12-20T15:50:40.752Z,47.17
2022-12-20T15:53:14.945Z,37.70
2022-12-20T15:55:44.838Z,41.10
2022-12-20T15:58:14.111Z,36.08
2022-12-20T16:00:42.986Z,46.58
2022-12-20T16:03:17.812Z,42.92
2022-12-20T16:05:56.586Z,45.58
2022-12-20T16:08:29.935Z,41.72
2022-12-20T16:11:04.961Z,42.63
2022-12-20T16:13:46.038Z,40.30
2022-12-20T16:16:19.274Z,36.33
2022-12-20T16:18:52.111Z,41.47
2022-12-20T16:21:22.019Z,35.72
2022-12-20T16:24:01.861Z,33.92
2022-12-20T16:26:31.052Z,34.33
2022-12-20T16:29:10.964Z,36.03
2022-12-20T16:31:43.289Z,37.53
2022-12-20T16:34:18.660Z,35.80
2022-12-20T16:36:55.974Z,35.53
2022-12-20T16:39:34.231Z,38.78
2022-12-20T16:42:07.860Z,32.20
2022-12-20T16:44:37.228Z,39.10
2022-12-20T16:47:07.146Z,37.05
2022-12-20T16:49:37.903Z,36.00
2022-12-20T16:52:18.645Z,35.40
2022-12-20T16:54:49.376Z,36.47
2022-12-20T16:57:18.411Z,61.90
2022-12-20T16:59:51.994Z,50.13
2022-12-20T17:02:31.592Z,37.80
2022-12-20T17:05:06.626Z,47.40
2022-12-20T17:07:41.441Z,48.65
2022-12-20T17:10:12.025Z,36.75
2022-12-20T17:12:41.273Z,38.83
2022-12-20T17:15:20.458Z,37.40
2022-12-20T17:17:49.668Z,36.15
2022-12-20T17:20:35.013Z,43.50
2022-12-20T17:23:07.291Z,44.42
2022-12-20T17:25:38.431Z,53.50
2022-12-20T17:28:07.109Z,55.22
2022-12-20T17:30:36.104Z,40.33
2022-12-20T17:33:07.009Z,49.58
2022-12-20T17:35:38.083Z,50.83
2022-12-20T17:38:13.599Z,44.33
2022-12-20T17:40:50.760Z,42.65
2022-12-20T17:43:22.086Z,38.80
2022-12-20T17:45:51.299Z,37.10
2022-12-20T17:48:20.774Z,37.33
2022-12-20T17:50:50.077Z,36.45
2022-12-20T17:53:19.366Z,40.55
2022-12-20T17:55:48.099Z,36.85
2022-12-20T17:58:17.380Z,44.00
2022-12-20T18:00:46.488Z,38.05
2022-12-20T18:03:45.029Z,40.58
2022-12-20T18:06:12.325Z,37.85
2022-12-20T18:11:25.546Z,34.13
2022-12-20T18:13:56.044Z,35.58
2022-12-20T18:16:40.967Z,40.67
2022-12-20T18:22:19.159Z,33.55
2022-12-20T18:24:50.652Z,43.65
2022-12-20T18:27:30.704Z,39.03
2022-12-20T18:30:00.986Z,35.72
2022-12-20T18:32:31.010Z,35.20
2022-12-20T18:35:01.168Z,33.83
2022-12-20T18:37:34.634Z,37.72
2022-12-20T18:40:07.425Z,36.40
2022-12-20T18:42:45.608Z,35.25
2022-12-20T18:45:15.361Z,36.63
2022-12-20T18:47:45.855Z,34.40
2022-12-20T18:50:23.475Z,33.75
2022-12-20T18:53:09.997Z,32.42
2022-12-20T18:55:42.490Z,32.67
2022-12-20T18:58:28.952Z,31.00
2022-12-20T19:01:09.980Z,44.38
2022-12-20T19:03:48.551Z,34.75
2022-12-20T19:06:41.229Z,32.42
2022-12-20T19:09:21.048Z,41.67
2022-12-20T19:11:57.427Z,71.57
2022-12-20T19:15:08.125Z,89.57
2022-12-20T19:17:41.704Z,65.40
2022-12-20T19:20:17.027Z,71.53
2022-12-20T19:22:53.007Z,40.22
2022-12-20T19:28:45.994Z,33.20
2022-12-20T19:31:24.014Z,28.25
2022-12-20T19:33:54.154Z,31.20
2022-12-20T19:36:28.322Z,30.27
2022-12-20T19:39:07.758Z,29.55
2022-12-20T19:42:22.476Z,30.67
2022-12-20T19:44:43.012Z,31.75
2022-12-20T19:47:22.825Z,31.05
2022-12-20T19:49:53.064Z,36.45
2022-12-20T19:52:29.713Z,46.60
2022-12-20T19:55:00.896Z,31.67
2022-12-20T19:57:37.567Z,79.80
2022-12-20T20:00:08.776Z,35.95
2022-12-20T20:02:52.840Z,66.22
2022-12-20T20:05:24.882Z,160.68
2022-12-20T20:11:02.640Z,37.67
2022-12-20T20:13:34.532Z,45.13
2022-12-20T20:19:05.962Z,30.10
2022-12-20T20:21:37.958Z,33.95
2022-12-20T20:24:13.048Z,29.05
2022-12-20T20:26:47.604Z,50.63
2022-12-20T20:29:28.300Z,26.92
2022-12-20T20:32:03.576Z,31.80
2022-12-20T20:34:33.880Z,25.40
2022-12-20T20:37:09.822Z,25.77
2022-12-20T20:39:39.251Z,25.67
2022-12-20T20:42:08.738Z,25.15
2022-12-20T20:44:38.873Z,27.42
2022-12-20T20:47:09.200Z,34.55
2022-12-20T20:49:40.919Z,67.07
2022-12-20T20:52:10.937Z,78.28
2022-12-20T20:54:41.061Z,106.57
2022-12-20T20:57:12.054Z,71.82
2022-12-20T21:00:02.804Z,55.22
2022-12-20T21:02:38.733Z,38.17
2022-12-20T21:06:00.146Z,35.03
2022-12-20T21:07:59.667Z,32.10
2022-12-20T21:10:32.627Z,29.52
2022-12-20T21:13:03.260Z,27.85
2022-12-20T21:15:46.851Z,32.25
2022-12-20T21:18:41.048Z,28.35
2022-12-20T21:21:11.877Z,42.00
2022-12-20T21:23:58.163Z,35.13
2022-12-20T21:26:28.531Z,29.27
2022-12-20T21:28:58.324Z,30.58
2022-12-20T21:31:29.391Z,28.25
2022-12-20T21:33:58.691Z,32.22
2022-12-20T21:36:28.494Z,32.25
2022-12-20T21:39:08.133Z,24.73
2022-12-20T21:41:40.828Z,24.70
2022-12-20T21:44:12.200Z,26.15
2022-12-20T21:46:44.709Z,24.15
2022-12-20T21:49:13.399Z,28.83
2022-12-20T21:51:44.319Z,77.30
2022-12-20T21:54:14.793Z,53.00
2022-12-20T21:56:46.298Z,31.20
2022-12-20T21:59:15.426Z,33.75
2022-12-20T22:01:52.668Z,24.08
2022-12-20T22:04:48.768Z,24.80
2022-12-20T22:07:37.293Z,24.48
2022-12-20T22:10:33.675Z,24.05
2022-12-20T22:13:07.183Z,23.95
2022-12-20T22:16:16.054Z,24.50
2022-12-20T22:18:45.611Z,23.13
2022-12-20T22:21:18.329Z,26.35
2022-12-20T22:27:54.581Z,27.90
2022-12-20T22:39:39.005Z,23.27
2022-12-20T22:53:31.146Z,23.45
2022-12-20T22:56:00.362Z,22.98
2022-12-20T23:07:01.827Z,25.13
2022-12-20T23:10:21.290Z,26.63
2022-12-20T23:13:48.246Z,27.77
2022-12-20T23:16:17.626Z,25.65
2022-12-20T23:18:49.494Z,23.25
2022-12-20T23:21:39.680Z,26.02
2022-12-20T23:24:10.100Z,27.52
2022-12-20T23:26:39.392Z,28.50
2022-12-20T23:29:09.371Z,22.27
2022-12-20T23:31:46.172Z,26.42
2022-12-20T23:34:19.496Z,25.13
2022-12-20T23:36:49.532Z,25.17
2022-12-20T23:39:21.419Z,25.23
2022-12-20T23:41:53.744Z,26.65
2022-12-20T23:44:22.889Z,24.92
2022-12-20T23:46:52.981Z,33.95
2022-12-20T23:49:21.364Z,25.90
2022-12-20T23:51:53.719Z,30.10
2022-12-20T23:54:22.324Z,28.45
2022-12-20T23:56:51.191Z,25.77
2022-12-20T23:59:26.012Z,26.50
